sensor_id;sensor_type;location;lat;lon;timestamp;P1;durP1;ratioP1;P2;durP2;ratioP2
61473;SDS011;53694;49.784;30.150;2024-01-10T00:00:40;19.63;;;8.79;;
61473;SDS011;53694;49.784;30.150;2024-01-10T00:01:42;16.57;;;7.22;;
61473;SDS011;53694;49.784;30.150;2024-01-10T00:02:44;16.07;;;6.57;;
61473;SDS011;53694;49.784;30.150;2024-01-10T00:03:45;14.40;;;6.88;;
61473;SDS011;53694;49.784;30.150;2024-01-10T00:04:47;14.87;;;6.81;;
61473;SDS011;53694;49.784;30.150;2024-01-10T00:05:49;13.62;;;6.99;;
61473;SDS011;53694;49.784;30.150;2024-01-10T00:06:50;15.56;;;7.13;;
61473;SDS011;53694;49.784;30.150;2024-01-10T00:07:52;14.91;;;7.77;;
61473;SDS011;53694;49.784;30.150;2024-01-10T00:08:54;17.30;;;8.61;;
61473;SDS011;53694;49.784;30.150;2024-01-10T00:09:55;16.21;;;7.83;;
61473;SDS011;53694;49.784;30.150;2024-01-10T00:10:57;17.16;;;7.63;;
61473;SDS011;53694;49.784;30.150;2024-01-10T00:11:58;18.42;;;8.71;;
61473;SDS011;53694;49.784;30.150;2024-01-10T00:13:00;21.21;;;9.06;;
61473;SDS011;53694;49.784;30.150;2024-01-10T00:14:02;17.20;;;8.21;;
61473;SDS011;53694;49.784;30.150;2024-01-10T00:15:05;16.96;;;8.33;;
61473;SDS011;53694;49.784;30.150;2024-01-10T00:16:07;17.63;;;8.97;;
61473;SDS011;53694;49.784;30.150;2024-01-10T00:17:08;22.75;;;9.96;;
61473;SDS011;53694;49.784;30.150;2024-01-10T00:18:10;20.32;;;10.14;;
61473;SDS011;53694;49.784;30.150;2024-01-10T00:19:11;17.19;;;9.01;;
61473;SDS011;53694;49.784;30.150;2024-01-10T00:20:14;23.03;;;10.65;;
61473;SDS011;53694;49.784;30.150;2024-01-10T00:21:15;18.81;;;9.27;;
61473;SDS011;53694;49.784;30.150;2024-01-10T00:22:17;19.39;;;9.51;;
61473;SDS011;53694;49.784;30.150;2024-01-10T00:23:19;19.41;;;9.27;;
61473;SDS011;53694;49.784;30.150;2024-01-10T00:24:20;22.58;;;9.57;;
61473;SDS011;53694;49.784;30.150;2024-01-10T00:25:24;19.51;;;8.73;;
61473;SDS011;53694;49.784;30.150;2024-01-10T00:26:25;15.92;;;7.89;;
61473;SDS011;53694;49.784;30.150;2024-01-10T00:27:27;16.80;;;8.39;;
61473;SDS011;53694;49.784;30.150;2024-01-10T00:28:29;14.28;;;7.87;;
61473;SDS011;53694;49.784;30.150;2024-01-10T00:29:30;14.36;;;7.09;;
61473;SDS011;53694;49.784;30.150;2024-01-10T00:30:32;13.27;;;6.43;;
61473;SDS011;53694;49.784;30.150;2024-01-10T00:31:33;18.27;;;8.08;;
61473;SDS011;53694;49.784;30.150;2024-01-10T00:32:35;14.11;;;7.11;;
61473;SDS011;53694;49.784;30.150;2024-01-10T00:33:36;16.49;;;7.51;;
61473;SDS011;53694;49.784;30.150;2024-01-10T00:34:38;16.51;;;8.44;;
61473;SDS011;53694;49.784;30.150;2024-01-10T00:35:39;17.81;;;8.16;;
61473;SDS011;53694;49.784;30.150;2024-01-10T00:36:41;16.41;;;8.07;;
61473;SDS011;53694;49.784;30.150;2024-01-10T00:37:43;18.79;;;9.51;;
61473;SDS011;53694;49.784;30.150;2024-01-10T00:38:44;18.71;;;8.39;;
61473;SDS011;53694;49.784;30.150;2024-01-10T00:39:46;16.49;;;9.41;;
61473;SDS011;53694;49.784;30.150;2024-01-10T00:40:47;20.85;;;10.54;;
61473;SDS011;53694;49.784;30.150;2024-01-10T00:41:49;17.85;;;9.66;;
61473;SDS011;53694;49.784;30.150;2024-01-10T00:42:50;20.66;;;10.04;;
61473;SDS011;53694;49.784;30.150;2024-01-10T00:43:52;20.10;;;10.10;;
61473;SDS011;53694;49.784;30.150;2024-01-10T00:44:54;21.81;;;10.21;;
61473;SDS011;53694;49.784;30.150;2024-01-10T00:45:55;18.87;;;10.52;;
61473;SDS011;53694;49.784;30.150;2024-01-10T00:46:57;24.01;;;11.27;;
61473;SDS011;53694;49.784;30.150;2024-01-10T00:47:59;18.15;;;8.96;;
61473;SDS011;53694;49.784;30.150;2024-01-10T00:49:00;18.71;;;8.79;;
61473;SDS011;53694;49.784;30.150;2024-01-10T00:50:02;15.07;;;7.47;;
61473;SDS011;53694;49.784;30.150;2024-01-10T00:51:04;14.01;;;7.26;;
61473;SDS011;53694;49.784;30.150;2024-01-10T00:52:05;14.33;;;6.62;;
61473;SDS011;53694;49.784;30.150;2024-01-10T00:53:07;14.29;;;6.41;;
61473;SDS011;53694;49.784;30.150;2024-01-10T00:54:08;13.50;;;6.68;;
61473;SDS011;53694;49.784;30.150;2024-01-10T00:55:10;12.58;;;7.26;;
61473;SDS011;53694;49.784;30.150;2024-01-10T00:56:12;15.20;;;7.41;;
61473;SDS011;53694;49.784;30.150;2024-01-10T00:57:14;16.71;;;7.66;;
61473;SDS011;53694;49.784;30.150;2024-01-10T00:58:15;15.24;;;8.34;;
61473;SDS011;53694;49.784;30.150;2024-01-10T00:59:17;18.26;;;8.57;;
61473;SDS011;53694;49.784;30.150;2024-01-10T01:00:18;14.87;;;7.16;;
61473;SDS011;53694;49.784;30.150;2024-01-10T01:01:20;15.11;;;7.11;;
61473;SDS011;53694;49.784;30.150;2024-01-10T01:02:22;16.28;;;8.60;;
61473;SDS011;53694;49.784;30.150;2024-01-10T01:03:23;22.70;;;8.16;;
61473;SDS011;53694;49.784;30.150;2024-01-10T01:04:25;15.09;;;7.16;;
61473;SDS011;53694;49.784;30.150;2024-01-10T01:05:26;13.98;;;7.91;;
61473;SDS011;53694;49.784;30.150;2024-01-10T01:06:28;19.40;;;8.46;;
61473;SDS011;53694;49.784;30.150;2024-01-10T01:07:29;16.70;;;8.95;;
61473;SDS011;53694;49.784;30.150;2024-01-10T01:08:31;16.55;;;8.31;;
61473;SDS011;53694;49.784;30.150;2024-01-10T01:09:33;20.85;;;9.34;;
61473;SDS011;53694;49.784;30.150;2024-01-10T01:10:35;15.13;;;7.45;;
61473;SDS011;53694;49.784;30.150;2024-01-10T01:11:36;13.41;;;6.69;;
61473;SDS011;53694;49.784;30.150;2024-01-10T01:12:38;14.69;;;6.72;;
61473;SDS011;53694;49.784;30.150;2024-01-10T01:13:39;15.97;;;7.23;;
61473;SDS011;53694;49.784;30.150;2024-01-10T01:14:41;14.65;;;6.94;;
61473;SDS011;53694;49.784;30.150;2024-01-10T01:15:43;13.90;;;6.66;;
61473;SDS011;53694;49.784;30.150;2024-01-10T01:16:45;14.31;;;5.93;;
61473;SDS011;53694;49.784;30.150;2024-01-10T01:17:46;11.92;;;5.69;;
61473;SDS011;53694;49.784;30.150;2024-01-10T01:18:48;13.56;;;6.69;;
61473;SDS011;53694;49.784;30.150;2024-01-10T01:19:49;14.67;;;7.63;;
61473;SDS011;53694;49.784;30.150;2024-01-10T01:20:51;16.31;;;8.22;;
61473;SDS011;53694;49.784;30.150;2024-01-10T01:21:52;17.26;;;8.72;;
61473;SDS011;53694;49.784;30.150;2024-01-10T01:22:54;20.22;;;9.65;;
61473;SDS011;53694;49.784;30.150;2024-01-10T01:23:55;15.08;;;7.88;;
61473;SDS011;53694;49.784;30.150;2024-01-10T01:24:57;19.56;;;9.13;;
61473;SDS011;53694;49.784;30.150;2024-01-10T01:25:59;18.64;;;9.11;;
61473;SDS011;53694;49.784;30.150;2024-01-10T01:27:00;17.91;;;9.11;;
61473;SDS011;53694;49.784;30.150;2024-01-10T01:28:02;19.35;;;8.62;;
61473;SDS011;53694;49.784;30.150;2024-01-10T01:29:04;17.56;;;8.82;;
61473;SDS011;53694;49.784;30.150;2024-01-10T01:30:06;19.15;;;8.93;;
61473;SDS011;53694;49.784;30.150;2024-01-10T01:31:08;17.87;;;8.55;;
61473;SDS011;53694;49.784;30.150;2024-01-10T01:32:10;14.91;;;7.16;;
61473;SDS011;53694;49.784;30.150;2024-01-10T01:33:11;14.21;;;7.09;;
61473;SDS011;53694;49.784;30.150;2024-01-10T01:34:13;11.59;;;6.14;;
61473;SDS011;53694;49.784;30.150;2024-01-10T01:35:14;14.16;;;6.57;;
61473;SDS011;53694;49.784;30.150;2024-01-10T01:36:17;13.03;;;6.03;;
61473;SDS011;53694;49.784;30.150;2024-01-10T01:37:18;13.77;;;6.35;;
61473;SDS011;53694;49.784;30.150;2024-01-10T01:38:20;14.16;;;6.48;;
61473;SDS011;53694;49.784;30.150;2024-01-10T01:39:21;13.08;;;6.28;;
61473;SDS011;53694;49.784;30.150;2024-01-10T01:40:24;15.43;;;7.83;;
61473;SDS011;53694;49.784;30.150;2024-01-10T01:41:25;14.96;;;7.88;;
61473;SDS011;53694;49.784;30.150;2024-01-10T01:42:27;17.65;;;7.05;;
61473;SDS011;53694;49.784;30.150;2024-01-10T01:43:28;16.89;;;8.14;;
61473;SDS011;53694;49.784;30.150;2024-01-10T01:44:30;15.81;;;9.00;;
61473;SDS011;53694;49.784;30.150;2024-01-10T01:45:32;17.74;;;7.90;;
61473;SDS011;53694;49.784;30.150;2024-01-10T01:46:33;18.04;;;8.35;;
61473;SDS011;53694;49.784;30.150;2024-01-10T01:47:35;18.37;;;9.64;;
61473;SDS011;53694;49.784;30.150;2024-01-10T01:48:37;15.21;;;8.47;;
61473;SDS011;53694;49.784;30.150;2024-01-10T01:49:39;18.66;;;8.69;;
61473;SDS011;53694;49.784;30.150;2024-01-10T01:50:40;17.09;;;9.59;;
61473;SDS011;53694;49.784;30.150;2024-01-10T01:51:42;21.43;;;9.61;;
61473;SDS011;53694;49.784;30.150;2024-01-10T01:52:44;17.86;;;8.80;;
61473;SDS011;53694;49.784;30.150;2024-01-10T01:53:46;15.23;;;7.19;;
61473;SDS011;53694;49.784;30.150;2024-01-10T01:54:49;15.35;;;7.96;;
61473;SDS011;53694;49.784;30.150;2024-01-10T01:55:51;12.77;;;6.41;;
61473;SDS011;53694;49.784;30.150;2024-01-10T01:56:53;14.69;;;7.39;;
61473;SDS011;53694;49.784;30.150;2024-01-10T01:57:55;12.54;;;7.07;;
61473;SDS011;53694;49.784;30.150;2024-01-10T01:58:57;12.20;;;6.28;;
61473;SDS011;53694;49.784;30.150;2024-01-10T01:59:58;12.46;;;6.26;;
61473;SDS011;53694;49.784;30.150;2024-01-10T02:01:01;14.74;;;7.20;;
61473;SDS011;53694;49.784;30.150;2024-01-10T02:02:04;16.20;;;8.21;;
61473;SDS011;53694;49.784;30.150;2024-01-10T02:03:07;16.00;;;7.83;;
61473;SDS011;53694;49.784;30.150;2024-01-10T02:04:10;14.91;;;8.12;;
61473;SDS011;53694;49.784;30.150;2024-01-10T02:05:12;16.61;;;8.56;;
61473;SDS011;53694;49.784;30.150;2024-01-10T02:06:15;18.88;;;9.78;;
61473;SDS011;53694;49.784;30.150;2024-01-10T02:07:16;18.17;;;8.78;;
61473;SDS011;53694;49.784;30.150;2024-01-10T02:08:18;16.39;;;8.82;;
61473;SDS011;53694;49.784;30.150;2024-01-10T02:09:19;17.06;;;8.29;;
61473;SDS011;53694;49.784;30.150;2024-01-10T02:10:21;18.13;;;9.19;;
61473;SDS011;53694;49.784;30.150;2024-01-10T02:11:23;17.57;;;9.81;;
61473;SDS011;53694;49.784;30.150;2024-01-10T02:12:25;19.97;;;9.44;;
61473;SDS011;53694;49.784;30.150;2024-01-10T02:13:27;21.57;;;10.44;;
61473;SDS011;53694;49.784;30.150;2024-01-10T02:14:29;17.25;;;8.43;;
61473;SDS011;53694;49.784;30.150;2024-01-10T02:15:31;15.00;;;7.57;;
61473;SDS011;53694;49.784;30.150;2024-01-10T02:16:33;14.15;;;6.92;;
61473;SDS011;53694;49.784;30.150;2024-01-10T02:17:34;14.71;;;6.31;;
61473;SDS011;53694;49.784;30.150;2024-01-10T02:18:36;13.01;;;6.16;;
61473;SDS011;53694;49.784;30.150;2024-01-10T02:19:39;13.84;;;7.04;;
61473;SDS011;53694;49.784;30.150;2024-01-10T02:20:44;13.93;;;5.95;;
61473;SDS011;53694;49.784;30.150;2024-01-10T02:21:45;13.47;;;7.20;;
61473;SDS011;53694;49.784;30.150;2024-01-10T02:22:47;13.43;;;6.71;;
61473;SDS011;53694;49.784;30.150;2024-01-10T02:23:49;19.75;;;7.89;;
61473;SDS011;53694;49.784;30.150;2024-01-10T02:24:53;14.59;;;7.40;;
61473;SDS011;53694;49.784;30.150;2024-01-10T02:25:55;15.98;;;7.62;;
61473;SDS011;53694;49.784;30.150;2024-01-10T02:26:56;18.68;;;8.58;;
61473;SDS011;53694;49.784;30.150;2024-01-10T02:27:58;15.86;;;8.29;;
61473;SDS011;53694;49.784;30.150;2024-01-10T02:28:59;18.11;;;8.92;;
61473;SDS011;53694;49.784;30.150;2024-01-10T02:30:05;18.56;;;8.55;;
61473;SDS011;53694;49.784;30.150;2024-01-10T02:31:08;18.16;;;8.71;;
61473;SDS011;53694;49.784;30.150;2024-01-10T02:32:10;23.17;;;10.61;;
61473;SDS011;53694;49.784;30.150;2024-01-10T02:33:11;20.41;;;9.94;;
61473;SDS011;53694;49.784;30.150;2024-01-10T02:34:12;20.32;;;9.81;;
61473;SDS011;53694;49.784;30.150;2024-01-10T02:35:14;17.09;;;8.27;;
61473;SDS011;53694;49.784;30.150;2024-01-10T02:36:16;15.91;;;7.60;;
61473;SDS011;53694;49.784;30.150;2024-01-10T02:37:17;13.80;;;7.26;;
61473;SDS011;53694;49.784;30.150;2024-01-10T02:38:19;14.41;;;7.25;;
61473;SDS011;53694;49.784;30.150;2024-01-10T02:39:21;14.34;;;6.87;;
61473;SDS011;53694;49.784;30.150;2024-01-10T02:40:22;13.95;;;6.79;;
61473;SDS011;53694;49.784;30.150;2024-01-10T02:41:24;13.22;;;6.18;;
61473;SDS011;53694;49.784;30.150;2024-01-10T02:42:28;12.31;;;6.31;;
61473;SDS011;53694;49.784;30.150;2024-01-10T02:43:30;13.26;;;6.69;;
61473;SDS011;53694;49.784;30.150;2024-01-10T02:44:32;16.19;;;6.84;;
61473;SDS011;53694;49.784;30.150;2024-01-10T02:45:33;15.91;;;7.47;;
61473;SDS011;53694;49.784;30.150;2024-01-10T02:46:35;15.02;;;7.24;;
61473;SDS011;53694;49.784;30.150;2024-01-10T02:47:36;17.00;;;7.82;;
61473;SDS011;53694;49.784;30.150;2024-01-10T02:48:38;14.63;;;7.63;;
61473;SDS011;53694;49.784;30.150;2024-01-10T02:49:39;15.30;;;8.06;;
61473;SDS011;53694;49.784;30.150;2024-01-10T02:50:41;20.25;;;8.08;;
61473;SDS011;53694;49.784;30.150;2024-01-10T02:51:43;15.75;;;8.51;;
61473;SDS011;53694;49.784;30.150;2024-01-10T02:52:44;18.94;;;8.24;;
61473;SDS011;53694;49.784;30.150;2024-01-10T02:53:46;15.95;;;8.41;;
61473;SDS011;53694;49.784;30.150;2024-01-10T02:54:47;16.13;;;8.71;;
61473;SDS011;53694;49.784;30.150;2024-01-10T02:55:49;18.16;;;9.66;;
61473;SDS011;53694;49.784;30.150;2024-01-10T02:56:51;18.57;;;8.47;;
61473;SDS011;53694;49.784;30.150;2024-01-10T02:57:53;15.49;;;7.31;;
61473;SDS011;53694;49.784;30.150;2024-01-10T02:58:55;16.81;;;6.82;;
61473;SDS011;53694;49.784;30.150;2024-01-10T02:59:56;11.98;;;5.81;;
61473;SDS011;53694;49.784;30.150;2024-01-10T03:00:58;15.25;;;7.37;;
61473;SDS011;53694;49.784;30.150;2024-01-10T03:01:59;14.13;;;6.70;;
61473;SDS011;53694;49.784;30.150;2024-01-10T03:03:01;14.66;;;6.92;;
61473;SDS011;53694;49.784;30.150;2024-01-10T03:04:02;13.39;;;5.90;;
61473;SDS011;53694;49.784;30.150;2024-01-10T03:05:04;17.33;;;7.43;;
61473;SDS011;53694;49.784;30.150;2024-01-10T03:06:07;16.43;;;7.81;;
61473;SDS011;53694;49.784;30.150;2024-01-10T03:07:08;18.46;;;7.91;;
61473;SDS011;53694;49.784;30.150;2024-01-10T03:08:10;18.44;;;8.67;;
61473;SDS011;53694;49.784;30.150;2024-01-10T03:09:11;16.48;;;8.21;;
61473;SDS011;53694;49.784;30.150;2024-01-10T03:10:13;15.46;;;8.38;;
61473;SDS011;53694;49.784;30.150;2024-01-10T03:11:15;16.11;;;8.65;;
61473;SDS011;53694;49.784;30.150;2024-01-10T03:12:17;16.59;;;9.00;;
61473;SDS011;53694;49.784;30.150;2024-01-10T03:13:18;17.57;;;8.36;;
61473;SDS011;53694;49.784;30.150;2024-01-10T03:14:19;17.82;;;8.85;;
61473;SDS011;53694;49.784;30.150;2024-01-10T03:15:21;19.29;;;9.08;;
61473;SDS011;53694;49.784;30.150;2024-01-10T03:16:23;18.49;;;9.69;;
61473;SDS011;53694;49.784;30.150;2024-01-10T03:17:24;19.99;;;8.91;;
61473;SDS011;53694;49.784;30.150;2024-01-10T03:18:26;15.12;;;7.09;;
61473;SDS011;53694;49.784;30.150;2024-01-10T03:19:27;13.76;;;6.72;;
61473;SDS011;53694;49.784;30.150;2024-01-10T03:20:29;14.88;;;7.25;;
61473;SDS011;53694;49.784;30.150;2024-01-10T03:21:31;13.99;;;6.45;;
61473;SDS011;53694;49.784;30.150;2024-01-10T03:22:32;15.30;;;6.93;;
61473;SDS011;53694;49.784;30.150;2024-01-10T03:23:34;13.66;;;6.52;;
61473;SDS011;53694;49.784;30.150;2024-01-10T03:24:35;13.80;;;7.07;;
61473;SDS011;53694;49.784;30.150;2024-01-10T03:25:37;14.76;;;7.08;;
61473;SDS011;53694;49.784;30.150;2024-01-10T03:26:38;15.24;;;7.92;;
61473;SDS011;53694;49.784;30.150;2024-01-10T03:27:40;16.72;;;7.89;;
61473;SDS011;53694;49.784;30.150;2024-01-10T03:28:42;17.59;;;8.63;;
61473;SDS011;53694;49.784;30.150;2024-01-10T03:29:43;17.41;;;8.91;;
61473;SDS011;53694;49.784;30.150;2024-01-10T03:30:45;14.03;;;7.02;;
61473;SDS011;53694;49.784;30.150;2024-01-10T03:31:46;17.44;;;8.06;;
61473;SDS011;53694;49.784;30.150;2024-01-10T03:32:48;17.04;;;8.54;;
61473;SDS011;53694;49.784;30.150;2024-01-10T03:33:49;19.79;;;8.94;;
61473;SDS011;53694;49.784;30.150;2024-01-10T03:34:51;14.79;;;8.28;;
61473;SDS011;53694;49.784;30.150;2024-01-10T03:35:53;18.65;;;8.65;;
61473;SDS011;53694;49.784;30.150;2024-01-10T03:36:54;17.12;;;8.92;;
61473;SDS011;53694;49.784;30.150;2024-01-10T03:37:56;16.01;;;7.89;;
61473;SDS011;53694;49.784;30.150;2024-01-10T03:38:57;16.48;;;7.66;;
61473;SDS011;53694;49.784;30.150;2024-01-10T03:39:59;12.32;;;7.14;;
61473;SDS011;53694;49.784;30.150;2024-01-10T03:41:01;15.28;;;7.25;;
61473;SDS011;53694;49.784;30.150;2024-01-10T03:42:02;13.07;;;6.44;;
61473;SDS011;53694;49.784;30.150;2024-01-10T03:43:04;17.75;;;6.87;;
61473;SDS011;53694;49.784;30.150;2024-01-10T03:44:06;14.45;;;6.10;;
61473;SDS011;53694;49.784;30.150;2024-01-10T03:45:07;14.34;;;6.47;;
61473;SDS011;53694;49.784;30.150;2024-01-10T03:46:10;14.40;;;6.79;;
61473;SDS011;53694;49.784;30.150;2024-01-10T03:47:11;13.95;;;6.75;;
61473;SDS011;53694;49.784;30.150;2024-01-10T03:48:13;17.31;;;7.97;;
61473;SDS011;53694;49.784;30.150;2024-01-10T03:49:14;16.78;;;8.10;;
61473;SDS011;53694;49.784;30.150;2024-01-10T03:50:17;15.19;;;7.92;;
61473;SDS011;53694;49.784;30.150;2024-01-10T03:51:21;16.73;;;8.26;;
61473;SDS011;53694;49.784;30.150;2024-01-10T03:52:22;19.24;;;9.76;;
61473;SDS011;53694;49.784;30.150;2024-01-10T03:53:23;18.51;;;9.71;;
61473;SDS011;53694;49.784;30.150;2024-01-10T03:54:25;19.36;;;8.98;;
61473;SDS011;53694;49.784;30.150;2024-01-10T03:55:28;16.76;;;8.90;;
61473;SDS011;53694;49.784;30.150;2024-01-10T03:56:30;18.90;;;10.20;;
61473;SDS011;53694;49.784;30.150;2024-01-10T03:57:31;16.79;;;9.86;;
61473;SDS011;53694;49.784;30.150;2024-01-10T03:58:33;17.70;;;8.91;;
61473;SDS011;53694;49.784;30.150;2024-01-10T03:59:34;14.92;;;7.20;;
61473;SDS011;53694;49.784;30.150;2024-01-10T04:00:36;15.27;;;7.16;;
61473;SDS011;53694;49.784;30.150;2024-01-10T04:01:38;14.57;;;7.22;;
61473;SDS011;53694;49.784;30.150;2024-01-10T04:02:39;13.99;;;6.76;;
61473;SDS011;53694;49.784;30.150;2024-01-10T04:03:41;11.66;;;6.47;;
61473;SDS011;53694;49.784;30.150;2024-01-10T04:04:42;13.76;;;6.44;;
61473;SDS011;53694;49.784;30.150;2024-01-10T04:05:44;13.11;;;6.56;;
61473;SDS011;53694;49.784;30.150;2024-01-10T04:06:45;12.13;;;6.31;;
61473;SDS011;53694;49.784;30.150;2024-01-10T04:07:47;14.65;;;6.98;;
61473;SDS011;53694;49.784;30.150;2024-01-10T04:08:49;15.99;;;7.07;;
61473;SDS011;53694;49.784;30.150;2024-01-10T04:09:51;16.59;;;7.62;;
61473;SDS011;53694;49.784;30.150;2024-01-10T04:10:53;14.69;;;7.70;;
61473;SDS011;53694;49.784;30.150;2024-01-10T04:11:55;16.02;;;8.19;;
61473;SDS011;53694;49.784;30.150;2024-01-10T04:12:56;14.64;;;8.40;;
61473;SDS011;53694;49.784;30.150;2024-01-10T04:13:58;17.69;;;8.41;;
61473;SDS011;53694;49.784;30.150;2024-01-10T04:14:59;17.45;;;9.49;;
61473;SDS011;53694;49.784;30.150;2024-01-10T04:16:00;20.11;;;9.29;;
61473;SDS011;53694;49.784;30.150;2024-01-10T04:17:02;17.71;;;9.56;;
61473;SDS011;53694;49.784;30.150;2024-01-10T04:18:04;17.71;;;8.99;;
61473;SDS011;53694;49.784;30.150;2024-01-10T04:19:05;16.11;;;7.75;;
61473;SDS011;53694;49.784;30.150;2024-01-10T04:20:09;15.99;;;7.66;;
61473;SDS011;53694;49.784;30.150;2024-01-10T04:21:11;14.68;;;7.72;;
61473;SDS011;53694;49.784;30.150;2024-01-10T04:22:12;13.93;;;7.54;;
61473;SDS011;53694;49.784;30.150;2024-01-10T04:23:14;11.86;;;6.54;;
61473;SDS011;53694;49.784;30.150;2024-01-10T04:24:15;12.02;;;6.11;;
61473;SDS011;53694;49.784;30.150;2024-01-10T04:25:19;14.49;;;7.09;;
61473;SDS011;53694;49.784;30.150;2024-01-10T04:26:21;11.44;;;6.29;;
61473;SDS011;53694;49.784;30.150;2024-01-10T04:27:22;14.34;;;7.41;;
61473;SDS011;53694;49.784;30.150;2024-01-10T04:28:24;12.88;;;6.33;;
61473;SDS011;53694;49.784;30.150;2024-01-10T04:29:25;14.26;;;7.02;;
61473;SDS011;53694;49.784;30.150;2024-01-10T04:30:27;17.31;;;7.62;;
61473;SDS011;53694;49.784;30.150;2024-01-10T04:31:28;18.31;;;8.26;;
61473;SDS011;53694;49.784;30.150;2024-01-10T04:32:30;18.03;;;8.49;;
61473;SDS011;53694;49.784;30.150;2024-01-10T04:33:31;14.80;;;7.79;;
61473;SDS011;53694;49.784;30.150;2024-01-10T04:34:33;15.25;;;7.86;;
61473;SDS011;53694;49.784;30.150;2024-01-10T04:35:34;17.04;;;8.74;;
61473;SDS011;53694;49.784;30.150;2024-01-10T04:36:36;20.97;;;9.67;;
61473;SDS011;53694;49.784;30.150;2024-01-10T04:37:38;24.15;;;11.55;;
61473;SDS011;53694;49.784;30.150;2024-01-10T04:38:39;21.08;;;9.44;;
61473;SDS011;53694;49.784;30.150;2024-01-10T04:39:41;15.14;;;7.44;;
61473;SDS011;53694;49.784;30.150;2024-01-10T04:40:43;18.88;;;7.88;;
61473;SDS011;53694;49.784;30.150;2024-01-10T04:41:45;18.47;;;8.46;;
61473;SDS011;53694;49.784;30.150;2024-01-10T04:42:46;15.33;;;7.93;;
61473;SDS011;53694;49.784;30.150;2024-01-10T04:43:48;15.81;;;7.62;;
61473;SDS011;53694;49.784;30.150;2024-01-10T04:44:49;16.38;;;7.26;;
61473;SDS011;53694;49.784;30.150;2024-01-10T04:45:51;15.38;;;8.20;;
61473;SDS011;53694;49.784;30.150;2024-01-10T04:46:53;16.27;;;7.69;;
61473;SDS011;53694;49.784;30.150;2024-01-10T04:47:54;17.84;;;8.17;;
61473;SDS011;53694;49.784;30.150;2024-01-10T04:48:56;17.14;;;8.08;;
61473;SDS011;53694;49.784;30.150;2024-01-10T04:49:57;16.32;;;8.40;;
61473;SDS011;53694;49.784;30.150;2024-01-10T04:50:59;15.25;;;8.22;;
61473;SDS011;53694;49.784;30.150;2024-01-10T04:52:01;17.46;;;8.58;;
61473;SDS011;53694;49.784;30.150;2024-01-10T04:53:03;20.03;;;8.71;;
61473;SDS011;53694;49.784;30.150;2024-01-10T04:54:05;19.45;;;9.93;;
61473;SDS011;53694;49.784;30.150;2024-01-10T04:55:06;20.86;;;10.87;;
61473;SDS011;53694;49.784;30.150;2024-01-10T04:56:08;22.09;;;11.19;;
61473;SDS011;53694;49.784;30.150;2024-01-10T04:57:10;26.53;;;12.94;;
61473;SDS011;53694;49.784;30.150;2024-01-10T04:58:12;22.19;;;11.21;;
61473;SDS011;53694;49.784;30.150;2024-01-10T04:59:13;18.71;;;9.56;;
61473;SDS011;53694;49.784;30.150;2024-01-10T05:00:16;16.04;;;8.62;;
61473;SDS011;53694;49.784;30.150;2024-01-10T05:01:18;15.57;;;8.19;;
61473;SDS011;53694;49.784;30.150;2024-01-10T05:02:20;16.87;;;8.46;;
61473;SDS011;53694;49.784;30.150;2024-01-10T05:03:21;19.03;;;8.82;;
61473;SDS011;53694;49.784;30.150;2024-01-10T05:04:23;22.34;;;9.70;;
61473;SDS011;53694;49.784;30.150;2024-01-10T05:05:25;15.57;;;7.48;;
61473;SDS011;53694;49.784;30.150;2024-01-10T05:06:26;15.76;;;7.07;;
61473;SDS011;53694;49.784;30.150;2024-01-10T05:07:28;13.76;;;7.19;;
61473;SDS011;53694;49.784;30.150;2024-01-10T05:08:29;15.02;;;6.86;;
61473;SDS011;53694;49.784;30.150;2024-01-10T05:09:31;15.18;;;7.06;;
61473;SDS011;53694;49.784;30.150;2024-01-10T05:10:32;17.93;;;8.60;;
61473;SDS011;53694;49.784;30.150;2024-01-10T05:11:34;15.44;;;7.54;;
61473;SDS011;53694;49.784;30.150;2024-01-10T05:12:36;14.31;;;7.91;;
61473;SDS011;53694;49.784;30.150;2024-01-10T05:13:37;18.93;;;8.94;;
61473;SDS011;53694;49.784;30.150;2024-01-10T05:14:39;16.69;;;8.47;;
61473;SDS011;53694;49.784;30.150;2024-01-10T05:15:40;19.44;;;8.93;;
61473;SDS011;53694;49.784;30.150;2024-01-10T05:16:42;18.97;;;9.25;;
61473;SDS011;53694;49.784;30.150;2024-01-10T05:17:44;22.56;;;10.31;;
61473;SDS011;53694;49.784;30.150;2024-01-10T05:18:45;21.66;;;10.50;;
61473;SDS011;53694;49.784;30.150;2024-01-10T05:19:47;19.48;;;9.80;;
61473;SDS011;53694;49.784;30.150;2024-01-10T05:20:48;19.03;;;9.04;;
61473;SDS011;53694;49.784;30.150;2024-01-10T05:21:50;15.66;;;7.71;;
61473;SDS011;53694;49.784;30.150;2024-01-10T05:22:52;17.43;;;7.87;;
61473;SDS011;53694;49.784;30.150;2024-01-10T05:23:53;17.44;;;8.07;;
61473;SDS011;53694;49.784;30.150;2024-01-10T05:24:55;19.84;;;8.61;;
61473;SDS011;53694;49.784;30.150;2024-01-10T05:25:56;17.33;;;8.29;;
61473;SDS011;53694;49.784;30.150;2024-01-10T05:26:58;16.75;;;8.82;;
61473;SDS011;53694;49.784;30.150;2024-01-10T05:27:59;17.82;;;7.27;;
61473;SDS011;53694;49.784;30.150;2024-01-10T05:29:01;17.49;;;9.32;;
61473;SDS011;53694;49.784;30.150;2024-01-10T05:30:02;20.31;;;8.39;;
61473;SDS011;53694;49.784;30.150;2024-01-10T05:31:04;17.86;;;9.34;;
61473;SDS011;53694;49.784;30.150;2024-01-10T05:32:06;20.46;;;9.55;;
61473;SDS011;53694;49.784;30.150;2024-01-10T05:33:08;19.99;;;10.36;;
61473;SDS011;53694;49.784;30.150;2024-01-10T05:34:10;20.51;;;10.11;;
61473;SDS011;53694;49.784;30.150;2024-01-10T05:35:11;19.54;;;10.62;;
61473;SDS011;53694;49.784;30.150;2024-01-10T05:36:13;20.97;;;10.71;;
61473;SDS011;53694;49.784;30.150;2024-01-10T05:37:15;22.21;;;11.33;;
61473;SDS011;53694;49.784;30.150;2024-01-10T05:38:16;21.16;;;11.14;;
61473;SDS011;53694;49.784;30.150;2024-01-10T05:39:18;21.28;;;9.27;;
61473;SDS011;53694;49.784;30.150;2024-01-10T05:40:20;20.09;;;8.81;;
61473;SDS011;53694;49.784;30.150;2024-01-10T05:41:22;20.69;;;9.23;;
61473;SDS011;53694;49.784;30.150;2024-01-10T05:42:23;15.44;;;7.75;;
61473;SDS011;53694;49.784;30.150;2024-01-10T05:43:25;18.06;;;7.87;;
61473;SDS011;53694;49.784;30.150;2024-01-10T05:44:26;17.57;;;8.17;;
61473;SDS011;53694;49.784;30.150;2024-01-10T05:45:28;15.23;;;7.76;;
61473;SDS011;53694;49.784;30.150;2024-01-10T05:46:29;17.76;;;8.11;;
61473;SDS011;53694;49.784;30.150;2024-01-10T05:47:31;14.96;;;8.58;;
61473;SDS011;53694;49.784;30.150;2024-01-10T05:48:33;17.65;;;7.25;;
61473;SDS011;53694;49.784;30.150;2024-01-10T05:49:34;16.91;;;7.77;;
61473;SDS011;53694;49.784;30.150;2024-01-10T05:50:36;17.70;;;8.06;;
61473;SDS011;53694;49.784;30.150;2024-01-10T05:51:37;17.12;;;8.18;;
61473;SDS011;53694;49.784;30.150;2024-01-10T05:52:39;14.99;;;8.20;;
61473;SDS011;53694;49.784;30.150;2024-01-10T05:53:40;17.38;;;9.46;;
61473;SDS011;53694;49.784;30.150;2024-01-10T05:54:42;17.89;;;8.41;;
61473;SDS011;53694;49.784;30.150;2024-01-10T05:55:43;19.31;;;9.34;;
61473;SDS011;53694;49.784;30.150;2024-01-10T05:56:45;21.33;;;9.46;;
61473;SDS011;53694;49.784;30.150;2024-01-10T05:57:47;22.02;;;10.38;;
61473;SDS011;53694;49.784;30.150;2024-01-10T05:58:48;20.12;;;9.14;;
61473;SDS011;53694;49.784;30.150;2024-01-10T05:59:50;18.99;;;8.46;;
61473;SDS011;53694;49.784;30.150;2024-01-10T06:00:52;16.06;;;8.25;;